createdAt,value
2022-11-10T00:00:17.402Z,74.3
2022-11-10T00:03:35.312Z,74.2
2022-11-10T00:06:24.918Z,74
2022-11-10T00:09:12.230Z,74.2
2022-11-10T00:12:00.065Z,74.3
2022-11-10T00:14:47.420Z,74.2
2022-11-10T00:18:06.760Z,74.3
2022-11-10T00:20:54.161Z,74.1
2022-11-10T00:23:48.149Z,74.3
2022-11-10T00:26:35.584Z,74.1
2022-11-10T00:29:23.916Z,74.5
2022-11-10T00:32:11.340Z,74.4
2022-11-10T00:34:58.737Z,74.4
2022-11-10T00:37:46.056Z,74.7
2022-11-10T00:40:35.352Z,74.6
2022-11-10T00:43:26.569Z,74.7
2022-11-10T00:46:15.128Z,74.7
2022-11-10T00:49:02.445Z,74.8
2022-11-10T00:51:49.877Z,74.6
2022-11-10T00:54:37.559Z,74.7
2022-11-10T00:57:26.305Z,74.6
2022-11-10T01:00:13.677Z,74.7
2022-11-10T01:03:01.622Z,74.8
2022-11-10T01:05:49.336Z,74.9
2022-11-10T01:08:36.866Z,75
2022-11-10T01:11:26.414Z,74.9
2022-11-10T01:14:13.934Z,74.9
2022-11-10T01:17:01.287Z,74.7
2022-11-10T01:19:48.713Z,74.7
2022-11-10T01:22:36.386Z,75
2022-11-10T01:25:25.251Z,74.8
2022-11-10T01:28:12.794Z,74.9
2022-11-10T01:31:00.225Z,75.2
2022-11-10T01:33:49.214Z,75.1
2022-11-10T01:36:36.833Z,75
2022-11-10T01:39:24.335Z,75.3
2022-11-10T01:42:11.684Z,75.1
2022-11-10T01:44:59.290Z,75
2022-11-10T01:48:28.242Z,75.3
2022-11-10T01:51:20.422Z,74.9
2022-11-10T01:54:11.453Z,75.1
2022-11-10T01:57:03.674Z,75.4
2022-11-10T01:59:56.303Z,75.3
2022-11-10T02:02:43.886Z,75.2
2022-11-10T02:05:35.773Z,75.7
2022-11-10T02:08:24.187Z,75.4
2022-11-10T02:11:12.673Z,75.8
2022-11-10T02:14:00.413Z,75.7
2022-11-10T02:16:48.344Z,75.6
2022-11-10T02:19:35.844Z,75.2
2022-11-10T02:22:26.545Z,75.8
2022-11-10T02:25:13.878Z,75.3
2022-11-10T02:28:05.041Z,76
2022-11-10T02:30:52.914Z,75.9
2022-11-10T02:33:40.646Z,75.8
2022-11-10T02:36:28.259Z,76
2022-11-10T02:39:15.677Z,76
2022-11-10T02:42:02.973Z,75.5
2022-11-10T02:44:54.862Z,76.2
2022-11-10T02:47:42.758Z,76.1
2022-11-10T02:50:30.040Z,76.1
2022-11-10T02:53:17.360Z,75.9
2022-11-10T02:56:04.663Z,76.1
2022-11-10T02:58:52.730Z,76
2022-11-10T03:01:40.545Z,76.8
2022-11-10T03:04:27.981Z,76.6
2022-11-10T03:07:15.573Z,76.2
2022-11-10T03:10:03.189Z,76.5
2022-11-10T03:12:52.394Z,76.7
2022-11-10T03:15:40.855Z,76.8
2022-11-10T03:18:28.192Z,76.7
2022-11-10T03:21:15.433Z,76.7
2022-11-10T03:24:02.783Z,76.6
2022-11-10T03:26:51.063Z,77.1
2022-11-10T03:29:38.801Z,76.4
2022-11-10T03:32:26.480Z,77
2022-11-10T03:35:13.938Z,76.7
2022-11-10T03:38:01.570Z,76.6
2022-11-10T03:41:12.565Z,77.2
2022-11-10T03:44:04.857Z,77
2022-11-10T03:46:52.409Z,77.2
2022-11-10T03:49:39.690Z,76.8
2022-11-10T03:52:27.278Z,76.6
2022-11-10T03:55:14.728Z,76.8
2022-11-10T03:58:03.839Z,77.3
2022-11-10T04:00:51.240Z,76.9
2022-11-10T04:03:39.446Z,77.3
2022-11-10T04:06:26.842Z,77.4
2022-11-10T04:11:16.546Z,77.4
2022-11-10T04:18:26.685Z,77
2022-11-10T04:21:14.243Z,77.5
2022-11-10T04:24:01.558Z,77.4
2022-11-10T04:26:49.402Z,77.5
2022-11-10T04:29:37.228Z,77.8
2022-11-10T04:32:25.577Z,77.8
2022-11-10T04:35:12.859Z,77.5
2022-11-10T04:38:00.219Z,77.4
2022-11-10T04:40:47.643Z,77.5
2022-11-10T04:43:34.980Z,77.4
2022-11-10T04:46:23.402Z,77.7
2022-11-10T04:49:12.722Z,77.2
2022-11-10T04:52:00.221Z,77.7
2022-11-10T04:54:47.644Z,77.8
2022-11-10T04:57:34.931Z,77.6
2022-11-10T05:00:22.433Z,77.8
2022-11-10T05:03:10.455Z,78.4
2022-11-10T05:05:58.873Z,77.8
2022-11-10T05:08:46.312Z,78
2022-11-10T05:11:33.666Z,77.8
2022-11-10T05:14:21.055Z,77.6
2022-11-10T05:17:08.382Z,78.1
2022-11-10T05:19:55.702Z,77.9
2022-11-10T05:22:47.856Z,77.9
2022-11-10T05:26:09.407Z,77.7
2022-11-10T05:28:58.653Z,77.6
2022-11-10T05:31:51.294Z,77.7
2022-11-10T05:34:39.192Z,77.8
2022-11-10T05:37:26.619Z,77.8
2022-11-10T05:40:13.906Z,77.5
2022-11-10T05:43:01.566Z,77.6
2022-11-10T05:45:48.960Z,77.4
2022-11-10T05:48:36.639Z,77.4
2022-11-10T05:51:25.400Z,77.2
2022-11-10T05:54:12.874Z,77.2
2022-11-10T05:57:00.242Z,77.1
2022-11-10T05:59:47.704Z,77.1
2022-11-10T06:02:35.265Z,77
2022-11-10T06:05:26.869Z,76.9
2022-11-10T06:08:19.798Z,76.8
2022-11-10T06:11:07.161Z,76.8
2022-11-10T06:13:54.406Z,76.7
2022-11-10T06:16:41.801Z,76.5
2022-11-10T06:19:29.219Z,76.5
2022-11-10T06:22:16.627Z,76.7
2022-11-10T06:25:04.408Z,76.6
2022-11-10T06:27:53.146Z,76.6
2022-11-10T06:30:40.817Z,76.9
2022-11-10T06:33:28.295Z,77
2022-11-10T06:36:15.643Z,76.7
2022-11-10T06:39:03.054Z,77.4
2022-11-10T06:41:50.654Z,76.9
2022-11-10T06:44:38.239Z,77.5
2022-11-10T06:47:26.565Z,77.5
2022-11-10T06:50:14.384Z,77.7
2022-11-10T06:53:01.972Z,77.6
2022-11-10T06:55:49.341Z,77.6
2022-11-10T06:58:37.083Z,77.9
2022-11-10T07:01:25.480Z,77.9
2022-11-10T07:04:19.639Z,78
2022-11-10T07:07:08.084Z,77.9
2022-11-10T07:09:56.220Z,77.7
2022-11-10T07:12:43.582Z,77.6
2022-11-10T07:15:30.923Z,77.5
2022-11-10T07:18:19.094Z,77.6
2022-11-10T07:21:07.896Z,77.5
2022-11-10T07:23:55.225Z,77.4
2022-11-10T07:26:42.534Z,77.3
2022-11-10T07:29:30.038Z,77.2
2022-11-10T07:32:17.392Z,77.1
2022-11-10T07:35:04.755Z,77.1
2022-11-10T07:37:52.790Z,77
2022-11-10T07:40:40.495Z,77
2022-11-10T07:43:27.788Z,76.8
2022-11-10T07:46:15.155Z,76.7
2022-11-10T07:49:02.517Z,76.6
2022-11-10T07:51:49.909Z,76.5
2022-11-10T07:54:37.319Z,76.6
2022-11-10T07:57:25.952Z,76.6
2022-11-10T08:00:13.381Z,76.1
2022-11-10T08:03:02.203Z,76.3
2022-11-10T08:05:51.349Z,76.5
2022-11-10T08:08:39.174Z,76.3
2022-11-10T08:11:27.008Z,76.2
2022-11-10T08:14:14.404Z,75.8
2022-11-10T08:17:01.782Z,76
2022-11-10T08:19:49.416Z,75.9
2022-11-10T08:22:37.034Z,75.8
2022-11-10T08:25:27.150Z,75.9
2022-11-10T08:28:20.186Z,75.9
2022-11-10T08:31:07.845Z,75.9
2022-11-10T08:33:55.420Z,75.9
2022-11-10T08:36:42.797Z,74.6
2022-11-10T08:39:39.134Z,74.8
2022-11-10T08:42:27.081Z,74.1
2022-11-10T08:45:14.400Z,74.3
2022-11-10T08:48:01.826Z,74.2
2022-11-10T08:50:51.105Z,74.1
2022-11-10T08:53:38.877Z,73.6
2022-11-10T08:56:27.166Z,73.3
2022-11-10T08:59:15.006Z,73.2
2022-11-10T09:02:02.343Z,72.6
2022-11-10T09:04:49.879Z,72.6
2022-11-10T09:07:38.379Z,71.6
2022-11-10T09:10:29.607Z,71.8
2022-11-10T09:13:18.130Z,71.1
2022-11-10T09:16:06.271Z,70.3
2022-11-10T09:18:53.965Z,70.9
2022-11-10T09:21:41.348Z,71
2022-11-10T09:24:31.491Z,70.8
2022-11-10T09:27:19.121Z,71.1
2022-11-10T09:30:06.592Z,71
2022-11-10T09:32:55.332Z,71
2022-11-10T09:35:45.075Z,71.2
2022-11-10T09:38:32.836Z,71.2
2022-11-10T09:41:20.207Z,70.9
2022-11-10T09:44:07.698Z,70.8
2022-11-10T09:47:01.019Z,69.9
2022-11-10T09:49:54.945Z,69.1
2022-11-10T09:52:46.060Z,69.2
2022-11-10T09:55:35.308Z,68.1
2022-11-10T09:58:29.406Z,68.3
2022-11-10T10:01:23.831Z,68.3
2022-11-10T10:04:20.014Z,67.6
2022-11-10T10:07:24.963Z,67.5
2022-11-10T10:10:23.916Z,67.4
2022-11-10T10:13:21.792Z,67.3
2022-11-10T10:16:30.171Z,66.5
2022-11-10T10:19:25.620Z,66.8
2022-11-10T10:22:23.253Z,66.5
2022-11-10T10:25:28.238Z,66.4
2022-11-10T10:28:17.589Z,65.2
2022-11-10T10:31:13.216Z,65.6
2022-11-10T10:34:05.381Z,65
2022-11-10T10:36:58.214Z,64.4
2022-11-10T10:39:45.799Z,64.7
2022-11-10T10:42:36.907Z,65
2022-11-10T10:45:25.939Z,65.1
2022-11-10T10:48:15.627Z,64
2022-11-10T10:51:12.368Z,64.1
2022-11-10T10:54:14.159Z,63.6
2022-11-10T10:57:09.958Z,63.5
2022-11-10T11:00:07.558Z,62.4
2022-11-10T11:03:05.446Z,62.1
2022-11-10T11:05:58.953Z,60.1
2022-11-10T11:08:50.606Z,60.3
2022-11-10T11:11:41.149Z,60.5
2022-11-10T11:14:30.586Z,60.2
2022-11-10T11:17:18.245Z,59.7
2022-11-10T11:20:07.696Z,59.9
2022-11-10T11:22:59.248Z,60.3
2022-11-10T11:25:58.258Z,59.6
2022-11-10T11:28:55.308Z,59.6
2022-11-10T11:31:54.775Z,60.5
2022-11-10T11:34:57.989Z,60.7
2022-11-10T11:37:52.848Z,61.1
2022-11-10T11:40:51.456Z,61.1
2022-11-10T11:43:52.440Z,61.7
2022-11-10T11:47:01.021Z,60.5
2022-11-10T11:50:00.287Z,59.8
2022-11-10T11:53:01.915Z,58.8
2022-11-10T11:56:05.183Z,59.5
2022-11-10T11:59:07.007Z,60.1
2022-11-10T12:02:09.484Z,60.9
2022-11-10T12:05:18.984Z,59.9
2022-11-10T12:08:17.929Z,61.1
2022-11-10T12:11:17.480Z,61.3
2022-11-10T12:14:13.668Z,61.9
2022-11-10T12:17:11.733Z,61.7
2022-11-10T12:20:11.979Z,61.5
2022-11-10T12:23:11.214Z,62
2022-11-10T12:26:07.160Z,61.9
2022-11-10T12:29:04.460Z,61.6
2022-11-10T12:32:02.930Z,62.2
2022-11-10T12:34:58.870Z,61
2022-11-10T12:37:51.432Z,59.2
2022-11-10T12:40:43.882Z,58.9
2022-11-10T12:43:34.408Z,59.1
2022-11-10T12:46:27.580Z,59.5
2022-11-10T12:49:14.935Z,60.4
2022-11-10T12:52:04.550Z,61.2
2022-11-10T12:54:57.822Z,61.6
2022-11-10T12:57:45.710Z,62
2022-11-10T13:00:34.170Z,62.4
2022-11-10T13:03:27.362Z,61.8
2022-11-10T13:06:17.198Z,61.7
2022-11-10T13:09:14.859Z,61.6
2022-11-10T13:12:10.290Z,61.4
2022-11-10T13:15:02.681Z,60.9
2022-11-10T13:18:31.889Z,60.6
2022-11-10T13:21:38.595Z,60.3
2022-11-10T13:25:13.229Z,59.7
2022-11-10T13:28:38.485Z,59.6
2022-11-10T13:31:43.803Z,60.2
2022-11-10T13:35:12.388Z,61
2022-11-10T13:39:23.017Z,61.3
2022-11-10T13:42:14.209Z,61.4
2022-11-10T13:45:04.511Z,61.8
2022-11-10T13:48:25.989Z,62
2022-11-10T13:51:26.067Z,62.4
2022-11-10T13:54:27.182Z,62.3
2022-11-10T13:57:34.558Z,61.5
2022-11-10T14:00:23.232Z,61.5
2022-11-10T14:03:13.622Z,61.2
2022-11-10T14:06:39.837Z,60.7
2022-11-10T14:09:32.178Z,61
2022-11-10T14:12:24.606Z,61.1
2022-11-10T14:15:15.267Z,61.3
2022-11-10T14:18:05.819Z,61.6
2022-11-10T14:21:03.178Z,62
2022-11-10T14:23:52.171Z,62.1
2022-11-10T14:26:44.127Z,62.3
2022-11-10T14:29:35.820Z,62.7
2022-11-10T14:32:25.305Z,63
2022-11-10T14:35:13.499Z,62.7
2022-11-10T14:38:09.308Z,63.2
2022-11-10T14:41:03.961Z,62.9
2022-11-10T14:43:59.063Z,63.4
2022-11-10T14:46:48.555Z,63.6
2022-11-10T14:49:36.553Z,64.3
2022-11-10T14:52:25.207Z,64
2022-11-10T14:55:12.919Z,64.2
2022-11-10T14:58:04.539Z,64.2
2022-11-10T15:00:58.078Z,64.6
2022-11-10T15:03:47.416Z,65
2022-11-10T15:06:35.208Z,65.1
2022-11-10T15:09:23.463Z,65.4
2022-11-10T15:12:14.123Z,65.7
2022-11-10T15:15:08.595Z,65.6
2022-11-10T15:18:06.323Z,65.8
2022-11-10T15:21:10.187Z,65.7
2022-11-10T15:23:58.502Z,66.1
2022-11-10T15:26:50.007Z,65.9
2022-11-10T15:29:37.627Z,66.2
2022-11-10T15:32:26.097Z,67.2
2022-11-10T15:35:19.863Z,66.5
2022-11-10T15:38:19.625Z,66.8
2022-11-10T15:41:15.414Z,66.6
2022-11-10T15:44:09.660Z,67.4
2022-11-10T15:47:01.421Z,66.8
2022-11-10T15:49:48.777Z,67.2
2022-11-10T15:52:36.161Z,67.5
2022-11-10T15:55:24.811Z,66.9
2022-11-10T15:58:12.200Z,67.4
2022-11-10T16:01:02.066Z,67.4
2022-11-10T16:03:49.895Z,67.5
2022-11-10T16:06:37.737Z,67.3
2022-11-10T16:09:26.184Z,67.5
2022-11-10T16:12:13.589Z,67.2
2022-11-10T16:15:04.286Z,67.3
2022-11-10T16:17:58.288Z,67.4
2022-11-10T16:20:45.886Z,67.3
2022-11-10T16:23:34.432Z,67.5
2022-11-10T16:26:21.805Z,67.5
2022-11-10T16:29:11.751Z,67.4
2022-11-10T16:32:02.927Z,67.8
2022-11-10T16:34:51.534Z,67.9
2022-11-10T16:37:39.934Z,67.6
2022-11-10T16:40:27.889Z,67.4
2022-11-10T16:43:15.182Z,67.7
2022-11-10T16:46:03.539Z,68.4
2022-11-10T16:49:02.714Z,67.9
2022-11-10T16:51:52.044Z,68
2022-11-10T16:54:39.649Z,68
2022-11-10T16:57:27.706Z,68
2022-11-10T17:00:15.137Z,67.8
2022-11-10T17:03:03.809Z,68.2
2022-11-10T17:05:57.772Z,68.4
2022-11-10T17:08:45.676Z,68.3
2022-11-10T17:11:35.112Z,68.5
2022-11-10T17:14:22.496Z,68.4
2022-11-10T17:17:09.847Z,68.1
2022-11-10T17:20:01.429Z,68.2
2022-11-10T17:22:51.599Z,68.2
2022-11-10T17:25:39.723Z,68.9
2022-11-10T17:28:28.261Z,68.3
2022-11-10T17:31:15.867Z,68.4
2022-11-10T17:34:03.258Z,68.9
2022-11-10T17:36:50.696Z,68.9
2022-11-10T17:39:38.440Z,68.9
2022-11-10T17:42:26.726Z,68.8
2022-11-10T17:45:14.041Z,68.9
2022-11-10T17:48:05.568Z,69.6
2022-11-10T17:50:53.788Z,69
2022-11-10T17:53:41.218Z,69.5
2022-11-10T17:56:28.548Z,69.2
2022-11-10T17:59:16.366Z,69.5
2022-11-10T18:02:03.791Z,69.8
2022-11-10T18:04:53.929Z,69.4
2022-11-10T18:07:41.311Z,69.5
2022-11-10T18:10:28.977Z,69.7
2022-11-10T18:13:16.394Z,69.5
2022-11-10T18:16:03.991Z,69.6
2022-11-10T18:18:53.589Z,69.6
2022-11-10T18:21:43.308Z,69.5
2022-11-10T18:24:31.133Z,69.5
2022-11-10T18:27:18.478Z,69.4
2022-11-10T18:30:06.017Z,69.2
2022-11-10T18:33:01.826Z,69.2
2022-11-10T18:35:50.764Z,69.1
2022-11-10T18:38:43.127Z,69.1
2022-11-10T18:41:30.479Z,69.2
2022-11-10T18:44:33.848Z,69.2
2022-11-10T18:47:21.615Z,69.1
2022-11-10T18:50:08.945Z,69.1
2022-11-10T18:52:56.324Z,69.3
2022-11-10T18:55:45.694Z,69.4
2022-11-10T18:58:39.627Z,69.4
2022-11-10T19:01:27.678Z,69.3
2022-11-10T19:04:15.181Z,69.3
2022-11-10T19:07:02.562Z,69.2
2022-11-10T19:09:50.673Z,69.5
2022-11-10T19:12:38.873Z,69.6
2022-11-10T19:15:27.174Z,69.7
2022-11-10T19:18:14.590Z,69.7
2022-11-10T19:21:01.972Z,69.7
2022-11-10T19:23:50.509Z,69.7
2022-11-10T19:26:40.901Z,70.6
2022-11-10T19:29:28.335Z,70.5
2022-11-10T19:32:18.572Z,70.3
2022-11-10T19:35:08.393Z,70.6
2022-11-10T19:37:57.860Z,70.7
2022-11-10T19:40:45.459Z,70.8
2022-11-10T19:43:32.750Z,70.3
2022-11-10T19:46:20.539Z,70.5
2022-11-10T19:49:09.529Z,70.9
2022-11-10T19:51:56.932Z,70.4
2022-11-10T19:54:44.187Z,70.9
2022-11-10T19:57:31.620Z,71.3
2022-11-10T20:00:19.020Z,70.9
2022-11-10T20:03:06.552Z,70.9
2022-11-10T20:05:56.005Z,71.2
2022-11-10T20:08:45.237Z,71
2022-11-10T20:11:34.180Z,71.2
2022-11-10T20:14:21.584Z,71.3
2022-11-10T20:17:08.947Z,71
2022-11-10T20:19:56.334Z,71.4
2022-11-10T20:22:43.660Z,71.7
2022-11-10T20:25:31.145Z,71.3
2022-11-10T20:28:19.184Z,71.6
2022-11-10T20:31:06.619Z,71.5
2022-11-10T20:33:57.199Z,71.6
2022-11-10T20:36:44.684Z,71.9
2022-11-10T20:39:32.017Z,71.5
2022-11-10T20:42:19.464Z,71.7
2022-11-10T20:45:06.808Z,71.9
2022-11-10T20:47:56.107Z,71.7
2022-11-10T20:50:44.139Z,71.8
2022-11-10T20:53:31.616Z,71.7
2022-11-10T20:56:18.930Z,71.9
2022-11-10T20:59:06.642Z,71.8
2022-11-10T21:01:54.114Z,71.6
2022-11-10T21:04:43.244Z,71.7
2022-11-10T21:07:30.871Z,71.6
2022-11-10T21:10:18.346Z,72.1
2022-11-10T21:13:05.719Z,71.6
2022-11-10T21:15:53.254Z,71.7
2022-11-10T21:18:42.658Z,71.8
2022-11-10T21:21:30.068Z,71.9
2022-11-10T21:24:18.895Z,71.9
2022-11-10T21:27:06.276Z,71.6
2022-11-10T21:29:55.468Z,71.8
2022-11-10T21:32:43.224Z,72.1
2022-11-10T21:35:35.333Z,72
2022-11-10T21:38:26.130Z,72
2022-11-10T21:41:13.443Z,72.2
2022-11-10T21:44:00.880Z,72
2022-11-10T21:46:48.208Z,72
2022-11-10T21:49:35.778Z,72.8
2022-11-10T21:52:23.246Z,72.8
2022-11-10T21:55:10.753Z,72.7
2022-11-10T21:57:58.130Z,73.3
2022-11-10T22:00:45.442Z,73
2022-11-10T22:03:32.802Z,73.1
2022-11-10T22:06:20.573Z,73
2022-11-10T22:09:08.121Z,73.2
2022-11-10T22:11:55.628Z,73.4
2022-11-10T22:15:14.553Z,73.1
2022-11-10T22:18:33.648Z,73
2022-11-10T22:21:22.002Z,72.9
2022-11-10T22:24:09.421Z,73.4
2022-11-10T22:27:12.542Z,73
2022-11-10T22:30:00.436Z,73.1
2022-11-10T22:32:48.325Z,73.2
2022-11-10T22:35:35.760Z,73.2
2022-11-10T22:38:30.257Z,73.2
2022-11-10T22:41:20.544Z,73.2
2022-11-10T22:44:39.932Z,73.1
2022-11-10T22:47:27.694Z,73.1
2022-11-10T22:51:10.432Z,73.1
2022-11-10T22:53:57.680Z,73.3
2022-11-10T22:56:47.062Z,73.2
2022-11-10T22:59:35.419Z,73.3
2022-11-10T23:02:22.689Z,73.5
2022-11-10T23:05:09.956Z,73.3
2022-11-10T23:07:57.412Z,73.4
2022-11-10T23:10:44.679Z,73.3
2022-11-10T23:13:32.566Z,73.2
2022-11-10T23:16:21.461Z,73.1
2022-11-10T23:19:11.383Z,73
2022-11-10T23:21:58.909Z,73
2022-11-10T23:24:46.159Z,72.9
2022-11-10T23:27:33.535Z,72.9
2022-11-10T23:30:21.509Z,72.8
2022-11-10T23:33:09.058Z,72.8
2022-11-10T23:35:56.342Z,72.7
2022-11-10T23:38:44.002Z,72.6
2022-11-10T23:41:33.277Z,72.6
2022-11-10T23:44:20.546Z,72.5
2022-11-10T23:47:07.910Z,72.5
2022-11-10T23:49:55.198Z,72.4
2022-11-10T23:52:42.520Z,72.4
2022-11-10T23:55:29.798Z,72.4
2022-11-10T23:58:17.226Z,72.4
